createdAt,value
2019-01-24T00:00:43.087Z,78.83
2019-01-24T00:03:12.377Z,80.93
2019-01-24T00:05:41.504Z,83.23
2019-01-24T00:08:11.096Z,77.37
2019-01-24T00:10:40.150Z,83.27
2019-01-24T00:13:10.911Z,85.17
2019-01-24T00:15:40.146Z,85.40
2019-01-24T00:18:09.535Z,88.77
2019-01-24T00:20:38.747Z,82.90
2019-01-24T00:23:08.102Z,83.40
2019-01-24T00:25:37.261Z,87.80
2019-01-24T00:28:06.381Z,87.53
2019-01-24T00:30:35.983Z,87.63
2019-01-24T00:33:05.286Z,89.50
2019-01-24T00:35:34.418Z,82.33
2019-01-24T00:38:03.621Z,90.33
2019-01-24T00:40:32.920Z,79.30
2019-01-24T00:43:03.102Z,79.97
2019-01-24T00:45:32.237Z,79.63
2019-01-24T00:48:01.481Z,78.87
2019-01-24T00:50:30.606Z,74.37
2019-01-24T00:52:59.930Z,80.60
2019-01-24T00:55:29.107Z,90.77
2019-01-24T00:57:58.171Z,73.20
2019-01-24T01:00:28.176Z,75.97
2019-01-24T01:02:57.359Z,83.13
2019-01-24T01:05:26.643Z,73.97
2019-01-24T01:07:55.857Z,79.57
2019-01-24T01:10:25.006Z,82.97
2019-01-24T01:12:54.364Z,83.17
2019-01-24T01:15:23.750Z,76.53
2019-01-24T01:17:52.893Z,87.27
2019-01-24T01:20:23.711Z,76.37
2019-01-24T01:22:53.117Z,84.67
2019-01-24T01:25:22.312Z,79.83
2019-01-24T01:27:53.360Z,76.63
2019-01-24T01:30:24.289Z,79.53
2019-01-24T01:32:54.084Z,80.50
2019-01-24T01:35:23.265Z,77.97
2019-01-24T01:37:52.463Z,77.53
2019-01-24T01:40:21.572Z,76.27
2019-01-24T01:42:51.150Z,84.70
2019-01-24T01:45:22.031Z,78.17
2019-01-24T01:47:51.167Z,85.90
2019-01-24T01:50:22.283Z,72.47
2019-01-24T01:52:51.604Z,82.90
2019-01-24T01:55:20.837Z,76.30
2019-01-24T01:57:49.899Z,75.53
2019-01-24T02:00:27.603Z,89.00
2019-01-24T02:02:56.724Z,71.57
2019-01-24T02:05:25.998Z,88.80
2019-01-24T02:07:55.590Z,68.40
2019-01-24T02:10:26.344Z,76.73
2019-01-24T02:12:55.452Z,80.53
2019-01-24T02:15:24.551Z,74.00
2019-01-24T02:17:53.661Z,77.27
2019-01-24T02:20:23.860Z,76.87
2019-01-24T02:22:53.346Z,74.73
2019-01-24T02:25:22.686Z,77.13
2019-01-24T02:27:51.782Z,76.40
2019-01-24T02:30:26.286Z,77.67
2019-01-24T02:32:55.695Z,71.97
2019-01-24T02:35:25.012Z,72.43
2019-01-24T02:37:54.363Z,85.67
2019-01-24T02:40:23.540Z,78.07
2019-01-24T02:42:52.637Z,82.57
2019-01-24T02:45:23.007Z,81.90
2019-01-24T02:47:52.301Z,82.60
2019-01-24T02:50:22.300Z,75.83
2019-01-24T02:52:53.231Z,77.37
2019-01-24T02:55:22.569Z,72.10
2019-01-24T02:57:51.669Z,83.20
2019-01-24T03:00:22.399Z,84.47
2019-01-24T03:02:52.167Z,79.33
2019-01-24T03:05:22.632Z,74.70
2019-01-24T03:07:51.825Z,88.20
2019-01-24T03:10:20.955Z,73.27
2019-01-24T03:12:50.392Z,82.60
2019-01-24T03:15:21.304Z,73.90
2019-01-24T03:17:50.807Z,78.20
2019-01-24T03:20:20.071Z,70.50
2019-01-24T03:22:49.154Z,74.20
2019-01-24T03:25:18.646Z,82.50
2019-01-24T03:27:48.235Z,78.33
2019-01-24T03:30:19.514Z,83.80
2019-01-24T03:32:48.810Z,83.33
2019-01-24T03:35:20.280Z,78.73
2019-01-24T03:37:49.404Z,82.80
2019-01-24T03:40:18.783Z,80.00
2019-01-24T03:42:47.868Z,75.43
2019-01-24T03:45:17.580Z,72.13
2019-01-24T03:47:46.927Z,80.90
2019-01-24T03:50:19.319Z,78.47
2019-01-24T03:52:48.509Z,81.97
2019-01-24T03:55:19.434Z,75.30
2019-01-24T03:57:48.925Z,75.47
2019-01-24T04:00:24.955Z,70.87
2019-01-24T04:02:54.163Z,75.30
2019-01-24T04:05:24.032Z,79.03
2019-01-24T04:07:53.402Z,79.03
2019-01-24T04:10:22.964Z,74.67
2019-01-24T04:12:52.081Z,84.47
2019-01-24T04:15:26.617Z,81.10
2019-01-24T04:17:55.972Z,76.57
2019-01-24T04:20:25.358Z,87.43
2019-01-24T04:22:54.689Z,71.80
2019-01-24T04:25:23.783Z,76.67
2019-01-24T04:27:53.111Z,78.20
2019-01-24T04:30:25.122Z,78.90
2019-01-24T04:32:54.536Z,77.83
2019-01-24T04:35:23.781Z,76.93
2019-01-24T04:37:52.867Z,84.73
2019-01-24T04:40:22.124Z,81.33
2019-01-24T04:42:51.324Z,73.47
2019-01-24T04:45:20.442Z,81.30
2019-01-24T04:47:49.737Z,74.63
2019-01-24T04:50:19.300Z,81.67
2019-01-24T04:52:48.358Z,80.03
2019-01-24T04:55:21.344Z,81.27
2019-01-24T04:57:50.861Z,79.83
2019-01-24T05:00:30.806Z,77.07
2019-01-24T05:03:00.158Z,73.43
2019-01-24T05:05:29.267Z,75.93
2019-01-24T05:07:58.389Z,80.13
2019-01-24T05:10:27.788Z,78.23
2019-01-24T05:12:57.010Z,79.73
2019-01-24T05:15:26.120Z,83.10
2019-01-24T05:17:55.395Z,85.30
2019-01-24T05:20:24.681Z,82.50
2019-01-24T05:22:53.921Z,65.00
2019-01-24T05:25:23.020Z,73.67
2019-01-24T05:27:52.072Z,74.90
2019-01-24T05:30:26.349Z,86.33
2019-01-24T05:32:56.133Z,75.90
2019-01-24T05:35:25.879Z,73.03
2019-01-24T05:37:55.023Z,76.03
2019-01-24T05:40:24.109Z,82.43
2019-01-24T05:42:53.265Z,83.80
2019-01-24T05:45:22.423Z,73.27
2019-01-24T05:47:52.449Z,71.57
2019-01-24T05:50:21.742Z,72.00
2019-01-24T05:52:50.933Z,85.57
2019-01-24T05:55:20.452Z,82.47
2019-01-24T05:57:49.601Z,77.80
2019-01-24T06:00:25.914Z,73.27
2019-01-24T06:02:55.169Z,70.77
2019-01-24T06:05:24.700Z,86.93
2019-01-24T06:07:54.042Z,71.30
2019-01-24T06:10:23.320Z,71.80
2019-01-24T06:12:52.524Z,77.53
2019-01-24T06:15:21.740Z,91.07
2019-01-24T06:17:50.909Z,76.17
2019-01-24T06:20:20.017Z,88.93
2019-01-24T06:22:51.513Z,74.67
2019-01-24T06:25:20.870Z,83.90
2019-01-24T06:27:50.070Z,72.77
2019-01-24T06:30:20.993Z,72.40
2019-01-24T06:32:50.123Z,81.13
2019-01-24T06:35:19.563Z,89.93
2019-01-24T06:37:49.020Z,80.63
2019-01-24T06:40:18.146Z,89.10
2019-01-24T06:42:47.258Z,82.93
2019-01-24T06:45:18.644Z,78.23
2019-01-24T06:47:47.975Z,77.93
2019-01-24T06:50:18.074Z,79.27
2019-01-24T06:52:47.172Z,83.67
2019-01-24T06:55:28.039Z,87.20
2019-01-24T06:57:57.136Z,82.53
2019-01-24T07:00:26.319Z,89.60
2019-01-24T07:02:55.755Z,91.00
2019-01-24T07:05:24.933Z,77.37
2019-01-24T07:07:54.183Z,83.53
2019-01-24T07:10:23.550Z,87.67
2019-01-24T07:12:52.657Z,82.00
2019-01-24T07:15:24.045Z,88.87
2019-01-24T07:17:53.130Z,84.67
2019-01-24T07:20:22.421Z,80.70
2019-01-24T07:22:51.498Z,85.83
2019-01-24T07:25:22.808Z,79.10
2019-01-24T07:27:52.238Z,91.50
2019-01-24T07:30:21.825Z,79.07
2019-01-24T07:32:51.150Z,87.77
2019-01-24T07:35:20.388Z,89.10
2019-01-24T07:37:49.482Z,84.23
2019-01-24T07:40:19.208Z,89.90
2019-01-24T07:42:49.485Z,90.50
2019-01-24T07:45:27.842Z,101.90
2019-01-24T07:47:57.039Z,79.77
2019-01-24T07:50:26.318Z,98.90
2019-01-24T07:52:55.421Z,77.90
2019-01-24T07:55:24.682Z,76.17
2019-01-24T07:57:53.998Z,89.13
2019-01-24T08:00:26.037Z,86.47
2019-01-24T08:02:55.323Z,82.30
2019-01-24T08:05:25.091Z,81.73
2019-01-24T08:07:54.606Z,81.10
2019-01-24T08:10:24.133Z,88.40
2019-01-24T08:12:53.212Z,85.03
2019-01-24T08:15:22.468Z,69.93
2019-01-24T08:17:51.598Z,89.70
2019-01-24T08:20:23.306Z,76.47
2019-01-24T08:22:52.549Z,77.10
2019-01-24T08:25:21.715Z,78.53
2019-01-24T08:27:50.755Z,72.87
2019-01-24T08:30:33.210Z,77.70
2019-01-24T08:33:02.641Z,79.43
2019-01-24T08:35:31.683Z,76.60
2019-01-24T08:38:00.984Z,85.93
2019-01-24T08:40:30.206Z,80.23
2019-01-24T08:42:59.401Z,86.23
2019-01-24T08:45:28.625Z,75.77
2019-01-24T08:47:57.834Z,77.37
2019-01-24T08:50:27.611Z,80.60
2019-01-24T08:52:56.701Z,79.27
2019-01-24T08:55:28.458Z,72.67
2019-01-24T08:57:57.683Z,75.83
2019-01-24T09:00:26.874Z,82.17
2019-01-24T09:02:56.137Z,93.57
2019-01-24T09:05:25.284Z,75.67
2019-01-24T09:07:54.675Z,84.50
2019-01-24T09:10:26.696Z,76.97
2019-01-24T09:12:56.051Z,79.20
2019-01-24T09:15:25.536Z,82.87
2019-01-24T09:17:54.585Z,68.07
2019-01-24T09:20:23.680Z,81.40
2019-01-24T09:22:55.288Z,76.30
2019-01-24T09:25:23.963Z,76.17
2019-01-24T09:27:53.217Z,78.13
2019-01-24T09:30:24.525Z,78.90
2019-01-24T09:32:53.693Z,74.83
2019-01-24T09:35:22.799Z,81.40
2019-01-24T09:37:51.916Z,87.83
2019-01-24T09:40:21.510Z,92.50
2019-01-24T09:42:50.570Z,93.00
2019-01-24T09:45:28.552Z,105.37
2019-01-24T09:47:59.662Z,101.63
2019-01-24T09:50:29.174Z,92.53
2019-01-24T09:52:58.239Z,88.33
2019-01-24T09:55:27.307Z,85.50
2019-01-24T09:57:58.013Z,81.73
2019-01-24T10:00:31.542Z,82.97
2019-01-24T10:03:01.195Z,73.57
2019-01-24T10:05:30.370Z,74.50
2019-01-24T10:07:59.722Z,70.60
2019-01-24T10:10:28.939Z,84.77
2019-01-24T10:12:58.827Z,81.10
2019-01-24T10:15:28.018Z,98.73
2019-01-24T10:17:57.283Z,80.87
2019-01-24T10:20:27.411Z,82.43
2019-01-24T10:22:56.940Z,75.00
2019-01-24T10:25:32.061Z,81.77
2019-01-24T10:28:01.177Z,79.73
2019-01-24T10:30:30.281Z,77.10
2019-01-24T10:32:59.598Z,80.33
2019-01-24T10:35:28.629Z,85.10
2019-01-24T10:37:57.726Z,75.60
2019-01-24T10:40:28.907Z,78.80
2019-01-24T10:42:58.330Z,85.60
2019-01-24T10:45:27.419Z,79.83
2019-01-24T10:47:56.537Z,81.93
2019-01-24T10:50:26.189Z,83.37
2019-01-24T10:52:55.359Z,86.23
2019-01-24T10:55:26.791Z,74.87
2019-01-24T10:57:58.203Z,78.17
2019-01-24T11:00:30.745Z,68.87
2019-01-24T11:02:59.823Z,85.63
2019-01-24T11:05:29.028Z,87.10
2019-01-24T11:07:58.142Z,82.17
2019-01-24T11:10:27.475Z,81.10
2019-01-24T11:12:56.589Z,76.67
2019-01-24T11:15:25.869Z,84.80
2019-01-24T11:17:56.507Z,80.37
2019-01-24T11:20:25.566Z,84.07
2019-01-24T11:22:54.626Z,88.40
2019-01-24T11:25:24.611Z,85.90
2019-01-24T11:27:53.799Z,81.97
2019-01-24T11:30:27.938Z,76.33
2019-01-24T11:32:57.161Z,77.27
2019-01-24T11:35:28.887Z,79.67
2019-01-24T11:37:57.927Z,81.67
2019-01-24T11:40:27.248Z,82.83
2019-01-24T11:42:56.317Z,77.60
2019-01-24T11:45:28.143Z,80.13
2019-01-24T11:47:57.536Z,82.33
2019-01-24T11:50:26.958Z,78.10
2019-01-24T11:52:56.041Z,76.70
2019-01-24T11:55:25.490Z,77.43
2019-01-24T11:57:54.560Z,70.77
2019-01-24T12:00:28.403Z,80.40
2019-01-24T12:02:57.621Z,77.23
2019-01-24T12:05:27.044Z,77.80
2019-01-24T12:07:56.080Z,74.00
2019-01-24T12:10:26.144Z,69.30
2019-01-24T12:12:55.571Z,80.60
2019-01-24T12:15:25.674Z,82.07
2019-01-24T12:17:55.122Z,73.63
2019-01-24T12:20:25.111Z,77.10
2019-01-24T12:22:54.307Z,67.90
2019-01-24T12:25:23.630Z,79.30
2019-01-24T12:27:52.739Z,81.37
2019-01-24T12:30:24.357Z,78.63
2019-01-24T12:32:53.424Z,78.63
2019-01-24T12:35:22.571Z,88.50
2019-01-24T12:37:51.697Z,73.33
2019-01-24T12:40:20.872Z,74.83
2019-01-24T12:42:50.057Z,82.20
2019-01-24T12:45:21.774Z,69.40
2019-01-24T12:47:50.884Z,68.97
2019-01-24T12:50:20.110Z,80.30
2019-01-24T12:52:49.269Z,80.47
2019-01-24T12:55:18.690Z,85.60
2019-01-24T12:57:47.825Z,74.13
2019-01-24T13:00:19.836Z,78.00
2019-01-24T13:02:50.837Z,71.50
2019-01-24T13:05:20.052Z,67.43
2019-01-24T13:07:49.158Z,73.37
2019-01-24T13:10:20.595Z,74.70
2019-01-24T13:12:49.894Z,65.03
2019-01-24T13:15:20.028Z,65.37
2019-01-24T13:17:49.160Z,72.87
2019-01-24T13:20:18.337Z,78.00
2019-01-24T13:22:47.415Z,71.40
2019-01-24T13:25:19.499Z,66.03
2019-01-24T13:27:48.762Z,73.30
2019-01-24T13:30:23.512Z,79.17
2019-01-24T13:32:52.601Z,67.90
2019-01-24T13:35:21.708Z,71.90
2019-01-24T13:37:50.834Z,74.13
2019-01-24T13:40:25.264Z,69.67
2019-01-24T13:42:54.377Z,77.20
2019-01-24T13:45:27.421Z,77.87
2019-01-24T13:47:56.489Z,75.17
2019-01-24T13:50:25.682Z,77.33
2019-01-24T13:52:54.776Z,70.90
2019-01-24T13:55:24.093Z,82.17
2019-01-24T13:57:53.205Z,90.83
2019-01-24T14:00:34.109Z,75.00
2019-01-24T14:03:29.722Z,71.37
2019-01-24T14:05:59.002Z,71.43
2019-01-24T14:08:28.158Z,78.20
2019-01-24T14:10:58.100Z,71.27
2019-01-24T14:13:27.514Z,68.83
2019-01-24T14:15:56.662Z,76.20
2019-01-24T14:18:25.792Z,66.07
2019-01-24T14:20:55.059Z,81.57
2019-01-24T14:23:24.587Z,82.73
2019-01-24T14:25:53.767Z,70.83
2019-01-24T14:28:22.855Z,75.67
2019-01-24T14:30:52.166Z,74.63
2019-01-24T14:33:21.465Z,71.47
2019-01-24T14:35:50.885Z,79.97
2019-01-24T14:38:20.126Z,82.60
2019-01-24T14:40:49.342Z,74.50
2019-01-24T14:43:18.466Z,64.47
2019-01-24T14:45:47.662Z,79.53
2019-01-24T14:48:16.884Z,78.20
2019-01-24T14:50:46.082Z,76.00
2019-01-24T14:53:15.783Z,71.27
2019-01-24T14:55:45.078Z,67.63
2019-01-24T14:58:14.453Z,80.07
2019-01-24T15:00:48.063Z,77.83
2019-01-24T15:03:17.737Z,80.77
2019-01-24T15:05:46.871Z,78.17
2019-01-24T15:08:16.179Z,71.50
2019-01-24T15:10:45.405Z,73.13
2019-01-24T15:13:14.757Z,76.73
2019-01-24T15:15:43.973Z,75.90
2019-01-24T15:18:13.084Z,69.27
2019-01-24T15:20:42.359Z,73.37
2019-01-24T15:23:11.611Z,70.97
2019-01-24T15:25:40.752Z,73.57
2019-01-24T15:28:09.960Z,76.40
2019-01-24T15:30:39.062Z,66.60
2019-01-24T15:33:08.410Z,71.90
2019-01-24T15:35:38.764Z,75.87
2019-01-24T15:38:08.063Z,77.50
2019-01-24T15:40:37.416Z,73.33
2019-01-24T15:43:07.082Z,71.80
2019-01-24T15:45:36.544Z,76.33
2019-01-24T15:48:06.801Z,70.17
2019-01-24T15:50:36.013Z,68.90
2019-01-24T15:53:06.100Z,69.73
2019-01-24T15:55:35.225Z,77.77
2019-01-24T15:58:04.801Z,74.00
2019-01-24T16:00:34.232Z,72.30
2019-01-24T16:03:03.381Z,73.30
2019-01-24T16:05:33.179Z,73.13
2019-01-24T16:08:08.556Z,80.20
2019-01-24T16:10:38.029Z,72.73
2019-01-24T16:13:07.520Z,83.60
2019-01-24T16:15:43.098Z,74.57
2019-01-24T16:18:13.706Z,72.20
2019-01-24T16:20:43.021Z,77.60
2019-01-24T16:23:12.265Z,78.27
2019-01-24T16:25:41.589Z,81.40
2019-01-24T16:28:10.738Z,79.77
2019-01-24T16:30:39.887Z,74.67
2019-01-24T16:33:09.890Z,82.97
2019-01-24T16:35:40.413Z,83.17
2019-01-24T16:38:09.918Z,88.17
2019-01-24T16:40:39.154Z,82.03
2019-01-24T16:43:08.522Z,87.00
2019-01-24T16:45:37.621Z,85.33
2019-01-24T16:48:08.421Z,97.73
2019-01-24T16:50:38.348Z,90.47
2019-01-24T16:53:07.841Z,97.93
2019-01-24T16:55:37.204Z,86.20
2019-01-24T16:58:07.687Z,84.20
2019-01-24T17:00:55.830Z,90.87
2019-01-24T17:03:25.516Z,93.80
2019-01-24T17:05:54.843Z,88.63
2019-01-24T17:08:24.121Z,88.47
2019-01-24T17:10:53.456Z,97.90
2019-01-24T17:13:22.743Z,105.43
2019-01-24T17:15:51.985Z,93.43
2019-01-24T17:18:21.338Z,96.03
2019-01-24T17:20:50.900Z,97.73
2019-01-24T17:23:20.174Z,99.07
2019-01-24T17:25:49.301Z,98.63
2019-01-24T17:28:18.588Z,110.23
2019-01-24T17:30:47.878Z,97.17
2019-01-24T17:33:17.041Z,95.40
2019-01-24T17:35:46.307Z,94.33
2019-01-24T17:38:16.274Z,99.83
2019-01-24T17:40:46.026Z,97.10
2019-01-24T17:43:15.672Z,100.77
2019-01-24T17:45:45.018Z,92.10
2019-01-24T17:48:14.772Z,92.17
2019-01-24T17:50:44.377Z,89.93
2019-01-24T17:53:14.042Z,97.73
2019-01-24T17:55:45.591Z,90.13
2019-01-24T17:58:15.003Z,88.20
2019-01-24T18:00:48.560Z,77.40
2019-01-24T18:03:18.008Z,96.00
2019-01-24T18:05:47.469Z,87.93
2019-01-24T18:08:16.885Z,86.00
2019-01-24T18:10:46.191Z,90.33
2019-01-24T18:13:15.540Z,90.77
2019-01-24T18:15:44.887Z,96.67
2019-01-24T18:18:15.612Z,83.47
2019-01-24T18:20:46.667Z,96.07
2019-01-24T18:23:19.965Z,97.03
2019-01-24T18:25:49.248Z,93.47
2019-01-24T18:28:18.672Z,102.13
2019-01-24T18:30:49.277Z,100.17
2019-01-24T18:33:20.568Z,91.77
2019-01-24T18:35:51.070Z,98.70
2019-01-24T18:38:21.559Z,99.03
2019-01-24T18:40:51.430Z,103.53
2019-01-24T18:43:23.774Z,102.70
2019-01-24T18:45:57.013Z,94.50
2019-01-24T18:48:26.181Z,95.47
2019-01-24T18:50:56.350Z,97.20
2019-01-24T18:53:25.635Z,102.67
2019-01-24T18:55:54.939Z,111.13
2019-01-24T18:58:24.471Z,104.93
2019-01-24T19:00:53.857Z,105.87
2019-01-24T19:03:23.099Z,93.80
2019-01-24T19:05:52.334Z,94.20
2019-01-24T19:08:21.772Z,95.80
2019-01-24T19:10:51.269Z,93.07
2019-01-24T19:13:20.610Z,98.30
2019-01-24T19:15:51.205Z,99.40
2019-01-24T19:18:20.396Z,101.27
2019-01-24T19:20:49.695Z,91.07
2019-01-24T19:23:18.890Z,100.23
2019-01-24T19:25:48.046Z,96.90
2019-01-24T19:28:18.803Z,91.27
2019-01-24T19:30:50.823Z,92.17
2019-01-24T19:33:20.412Z,96.13
2019-01-24T19:35:50.225Z,95.70
2019-01-24T19:38:19.934Z,94.77
2019-01-24T19:40:49.975Z,104.70
2019-01-24T19:43:19.430Z,105.50
2019-01-24T19:45:49.772Z,114.37
2019-01-24T19:48:20.021Z,101.30
2019-01-24T19:50:50.111Z,100.83
2019-01-24T19:53:20.082Z,105.03
2019-01-24T19:55:50.919Z,103.00
2019-01-24T19:58:20.976Z,96.07
2019-01-24T20:00:50.647Z,98.27
2019-01-24T20:03:20.904Z,97.90
2019-01-24T20:05:50.563Z,100.50
2019-01-24T20:08:20.317Z,103.93
2019-01-24T20:10:49.849Z,107.03
2019-01-24T20:13:19.778Z,111.87
2019-01-24T20:15:50.099Z,103.97
2019-01-24T20:18:21.119Z,97.00
2019-01-24T20:20:51.794Z,103.80
2019-01-24T20:23:21.589Z,103.00
2019-01-24T20:25:51.363Z,103.70
2019-01-24T20:28:20.889Z,103.87
2019-01-24T20:30:50.376Z,98.50
2019-01-24T20:33:20.184Z,94.33
2019-01-24T20:35:52.633Z,100.13
2019-01-24T20:38:21.945Z,103.10
2019-01-24T20:40:51.447Z,120.33
2019-01-24T20:43:21.139Z,98.90
2019-01-24T20:45:50.302Z,98.07
2019-01-24T20:48:19.756Z,97.27
2019-01-24T20:50:49.280Z,105.33
2019-01-24T20:53:18.940Z,100.47
2019-01-24T20:55:48.637Z,97.40
2019-01-24T20:58:17.918Z,93.77
2019-01-24T21:00:47.100Z,89.77
2019-01-24T21:03:16.174Z,85.00
2019-01-24T21:05:45.541Z,79.20
2019-01-24T21:08:15.083Z,63.27
2019-01-24T21:10:44.438Z,48.40
2019-01-24T21:13:13.777Z,64.07
2019-01-24T21:15:43.324Z,69.03
2019-01-24T21:18:12.477Z,76.93
2019-01-24T21:20:41.748Z,77.47
2019-01-24T21:23:11.068Z,78.50
2019-01-24T21:25:40.645Z,77.87
2019-01-24T21:28:10.324Z,75.17
2019-01-24T21:30:39.576Z,77.87
2019-01-24T21:33:09.270Z,70.97
2019-01-24T21:35:38.771Z,70.53
2019-01-24T21:38:09.001Z,64.30
2019-01-24T21:40:38.116Z,59.97
2019-01-24T21:43:07.684Z,62.70
2019-01-24T21:45:37.417Z,52.90
2019-01-24T21:48:08.125Z,41.77
2019-01-24T21:50:37.392Z,45.50
2019-01-24T21:53:07.411Z,43.47
2019-01-24T21:55:36.539Z,46.50
2019-01-24T21:58:07.677Z,49.70
2019-01-24T22:00:36.974Z,48.53
2019-01-24T22:03:07.144Z,44.00
2019-01-24T22:05:37.351Z,47.77
2019-01-24T22:08:06.858Z,47.00
2019-01-24T22:10:36.594Z,47.13
2019-01-24T22:13:06.677Z,45.90
2019-01-24T22:15:36.026Z,52.47
2019-01-24T22:18:06.208Z,51.30
2019-01-24T22:20:35.553Z,47.87
2019-01-24T22:23:06.200Z,50.67
2019-01-24T22:25:36.342Z,61.83
2019-01-24T22:28:06.494Z,59.37
2019-01-24T22:30:46.938Z,59.63
2019-01-24T22:33:16.357Z,66.30
2019-01-24T22:35:45.846Z,70.60
2019-01-24T22:38:17.391Z,70.03
2019-01-24T22:40:46.923Z,81.23
2019-01-24T22:43:16.153Z,69.77
2019-01-24T22:45:45.419Z,62.20
2019-01-24T22:48:15.434Z,70.53
2019-01-24T22:50:45.206Z,61.80
2019-01-24T22:53:15.015Z,61.73
2019-01-24T22:55:46.648Z,64.90
2019-01-24T22:58:16.402Z,62.50
2019-01-24T23:01:13.002Z,55.10
2019-01-24T23:03:48.425Z,64.23
2019-01-24T23:06:17.796Z,55.30
2019-01-24T23:08:47.398Z,56.97
2019-01-24T23:11:16.517Z,69.27
2019-01-24T23:13:45.896Z,59.23
2019-01-24T23:16:15.371Z,62.50
2019-01-24T23:18:44.574Z,65.00
2019-01-24T23:21:14.330Z,59.87
2019-01-24T23:23:43.538Z,64.23
2019-01-24T23:26:14.057Z,61.77
2019-01-24T23:28:43.150Z,59.20
2019-01-24T23:31:12.347Z,62.40
2019-01-24T23:33:41.831Z,60.73
2019-01-24T23:36:10.954Z,59.60
2019-01-24T23:38:40.431Z,60.00
2019-01-24T23:41:09.929Z,59.00
2019-01-24T23:43:40.732Z,63.30
2019-01-24T23:46:10.383Z,67.87
2019-01-24T23:48:39.644Z,63.67
2019-01-24T23:51:08.810Z,63.83
2019-01-24T23:53:38.292Z,63.40
2019-01-24T23:56:10.144Z,67.43
2019-01-24T23:58:39.658Z,68.17
